createdAt,value
2017-03-14T00:00:09.261Z,18.73
2017-03-14T00:01:19.554Z,18.91
2017-03-14T00:02:30.240Z,18.82
2017-03-14T00:03:41.181Z,18.73
2017-03-14T00:04:51.873Z,18.73
2017-03-14T00:06:01.834Z,18.82
2017-03-14T00:07:12.122Z,18.82
2017-03-14T00:08:22.017Z,18.82
2017-03-14T00:09:32.179Z,18.82
2017-03-14T00:10:42.085Z,18.82
2017-03-14T00:11:51.591Z,18.82
2017-03-14T00:13:01.104Z,18.91
2017-03-14T00:14:11.795Z,18.91
2017-03-14T00:15:22.742Z,18.82
2017-03-14T00:16:33.028Z,18.82
2017-03-14T00:17:42.927Z,18.82
2017-03-14T00:18:52.847Z,19.01
2017-03-14T00:20:03.552Z,18.91
2017-03-14T00:21:13.701Z,18.91
2017-03-14T00:22:23.987Z,18.91
2017-03-14T00:23:33.482Z,18.91
2017-03-14T00:24:43.375Z,19.11
2017-03-14T00:25:54.061Z,18.82
2017-03-14T00:27:04.215Z,18.82
2017-03-14T00:28:14.506Z,18.91
2017-03-14T00:29:24.409Z,18.91
2017-03-14T00:30:35.094Z,18.91
2017-03-14T00:31:45.379Z,18.91
2017-03-14T00:32:55.914Z,18.91
2017-03-14T00:34:05.853Z,18.91
2017-03-14T00:35:16.150Z,18.91
2017-03-14T00:36:26.490Z,18.82
2017-03-14T00:37:36.386Z,19.01
2017-03-14T00:38:46.941Z,19.11
2017-03-14T00:39:57.642Z,18.91
2017-03-14T00:41:07.946Z,19.11
2017-03-14T00:42:18.230Z,19.01
2017-03-14T00:43:28.537Z,19.11
2017-03-14T00:44:39.464Z,19.11
2017-03-14T00:45:50.166Z,19.11
2017-03-14T00:47:00.861Z,19.11
2017-03-14T00:48:11.159Z,19.11
2017-03-14T00:49:21.054Z,19.11
2017-03-14T00:50:31.200Z,19.11
2017-03-14T00:51:41.496Z,19.11
2017-03-14T00:52:52.195Z,19.11
2017-03-14T00:54:02.879Z,19.11
2017-03-14T00:55:13.565Z,19.2
2017-03-14T00:56:24.107Z,19.11
2017-03-14T00:57:34.009Z,19.11
2017-03-14T00:58:43.504Z,19.11
2017-03-14T00:59:53.004Z,19.11
2017-03-14T01:01:03.699Z,19.01
2017-03-14T01:02:14.637Z,19.11
2017-03-14T01:03:24.933Z,19.01
2017-03-14T01:04:35.618Z,19.01
2017-03-14T01:05:45.504Z,19.2
2017-03-14T01:06:55.404Z,19.2
2017-03-14T01:08:05.556Z,19.01
2017-03-14T01:09:15.849Z,19.11
2017-03-14T01:10:25.761Z,18.91
2017-03-14T01:11:35.657Z,18.91
2017-03-14T01:12:45.561Z,18.91
2017-03-14T01:13:55.300Z,19.2
2017-03-14T01:15:04.807Z,19.11
2017-03-14T01:16:15.099Z,18.91
2017-03-14T01:17:25.001Z,18.91
2017-03-14T01:18:35.283Z,19.11
2017-03-14T01:19:45.839Z,18.91
2017-03-14T01:20:55.733Z,19.01
2017-03-14T01:22:05.633Z,18.91
2017-03-14T01:23:15.532Z,18.91
2017-03-14T01:24:26.220Z,18.91
2017-03-14T01:25:37.156Z,19.01
2017-03-14T01:26:47.839Z,19.11
2017-03-14T01:27:57.765Z,19.01
2017-03-14T01:29:08.456Z,19.01
2017-03-14T01:30:18.365Z,19.01
2017-03-14T01:31:28.912Z,18.73
2017-03-14T01:32:39.200Z,19.01
2017-03-14T01:33:49.501Z,19.01
2017-03-14T01:34:59.814Z,19.11
2017-03-14T01:36:10.101Z,19.2
2017-03-14T01:37:21.036Z,19.01
2017-03-14T01:38:31.332Z,18.91
2017-03-14T01:39:40.792Z,19.01
2017-03-14T01:40:50.693Z,19.2
2017-03-14T01:42:00.614Z,19.2
2017-03-14T01:43:11.542Z,19.11
2017-03-14T01:44:21.042Z,19.2
2017-03-14T01:45:31.736Z,19.11
2017-03-14T01:46:42.028Z,18.63
2017-03-14T01:47:52.330Z,19.2
2017-03-14T01:49:02.880Z,19.01
2017-03-14T01:50:13.175Z,19.01
2017-03-14T01:51:23.862Z,19.11
2017-03-14T01:52:34.538Z,19.11
2017-03-14T01:53:44.447Z,19.01
2017-03-14T01:54:54.599Z,18.91
2017-03-14T01:56:04.512Z,18.63
2017-03-14T01:57:15.209Z,18.73
2017-03-14T01:58:25.519Z,19.11
2017-03-14T01:59:35.024Z,19.01
2017-03-14T02:00:45.172Z,18.63
2017-03-14T02:01:55.875Z,18.91
2017-03-14T02:03:05.767Z,19.01
2017-03-14T02:04:16.073Z,19.11
2017-03-14T02:05:26.854Z,19.01
2017-03-14T02:06:37.786Z,18.91
2017-03-14T02:07:48.083Z,19.01
2017-03-14T02:08:58.377Z,19.01
2017-03-14T02:10:08.674Z,19.01
2017-03-14T02:11:19.369Z,18.91
2017-03-14T02:12:30.296Z,18.63
2017-03-14T02:13:40.218Z,19.01
2017-03-14T02:14:50.912Z,19.2
2017-03-14T02:16:01.205Z,19.01
2017-03-14T02:17:11.505Z,18.63
2017-03-14T02:18:22.443Z,18.91
2017-03-14T02:19:32.729Z,18.91
2017-03-14T02:20:43.020Z,19.2
2017-03-14T02:21:52.518Z,19.2
2017-03-14T02:23:02.818Z,19.2
2017-03-14T02:24:13.354Z,19.01
2017-03-14T02:25:23.245Z,19.11
2017-03-14T02:26:33.545Z,18.63
2017-03-14T02:27:43.050Z,19.01
2017-03-14T02:28:53.340Z,19.01
2017-03-14T02:30:03.482Z,19.01
2017-03-14T02:31:14.174Z,19.01
2017-03-14T02:32:24.458Z,19.01
2017-03-14T02:33:33.965Z,19.01
2017-03-14T02:34:43.854Z,19.01
2017-03-14T02:35:54.789Z,18.91
2017-03-14T02:37:04.297Z,18.91
2017-03-14T02:38:14.592Z,19.11
2017-03-14T02:39:25.274Z,19.01
2017-03-14T02:40:35.181Z,18.91
2017-03-14T02:41:45.379Z,19.01
2017-03-14T02:42:56.074Z,19.01
2017-03-14T02:44:06.764Z,19.11
2017-03-14T02:45:17.048Z,18.82
2017-03-14T02:46:27.728Z,19.11
2017-03-14T02:47:38.669Z,19.01
2017-03-14T02:48:48.564Z,19.01
2017-03-14T02:49:58.845Z,19.11
2017-03-14T02:51:08.736Z,19.2
2017-03-14T02:52:19.036Z,19.2
2017-03-14T02:53:29.237Z,19.11
2017-03-14T02:54:39.529Z,19.01
2017-03-14T02:55:49.810Z,19.11
2017-03-14T02:56:59.711Z,19.2
2017-03-14T02:58:10.002Z,19.2
2017-03-14T02:59:20.954Z,18.91
2017-03-14T03:00:31.243Z,19.2
2017-03-14T03:01:41.946Z,19.2
2017-03-14T03:02:52.234Z,19.11
2017-03-14T03:04:02.531Z,19.3
2017-03-14T03:05:13.488Z,19.11
2017-03-14T03:06:22.598Z,19.01
2017-03-14T03:07:32.904Z,19.11
2017-03-14T03:08:43.584Z,19.11
2017-03-14T03:09:53.489Z,19.11
2017-03-14T03:11:04.038Z,19.11
2017-03-14T03:12:14.335Z,19.2
2017-03-14T03:13:25.012Z,19.11
2017-03-14T03:14:34.952Z,19.11
2017-03-14T03:15:45.245Z,18.73
2017-03-14T03:16:55.399Z,19.11
2017-03-14T03:18:05.683Z,19.3
2017-03-14T03:19:15.970Z,19.11
2017-03-14T03:20:25.483Z,18.91
2017-03-14T03:21:35.772Z,19.01
2017-03-14T03:22:46.708Z,19.2
2017-03-14T03:23:56.611Z,19.11
2017-03-14T03:25:06.918Z,18.91
2017-03-14T03:26:17.200Z,19.2
2017-03-14T03:27:27.112Z,19.3
2017-03-14T03:28:38.057Z,19.01
2017-03-14T03:29:48.339Z,19.11
2017-03-14T03:30:58.638Z,19.01
2017-03-14T03:32:09.328Z,19.2
2017-03-14T03:33:20.006Z,19.11
2017-03-14T03:34:30.947Z,18.91
2017-03-14T03:35:41.241Z,19.01
2017-03-14T03:36:51.529Z,19.11
2017-03-14T03:38:01.826Z,19.11
2017-03-14T03:39:11.722Z,19.11
2017-03-14T03:40:22.672Z,19.11
2017-03-14T03:41:33.363Z,19.2
2017-03-14T03:42:43.667Z,19.11
2017-03-14T03:43:53.968Z,19.01
2017-03-14T03:45:03.477Z,19.11
2017-03-14T03:46:13.650Z,19.3
2017-03-14T03:47:23.938Z,19.11
2017-03-14T03:48:34.232Z,19.11
2017-03-14T03:49:44.519Z,19.2
2017-03-14T03:50:54.821Z,19.2
2017-03-14T03:52:04.981Z,19.2
2017-03-14T03:53:14.487Z,19.2
2017-03-14T03:54:24.791Z,19.11
2017-03-14T03:55:34.696Z,19.29
2017-03-14T03:56:44.996Z,19.3
2017-03-14T03:57:55.928Z,19.11
2017-03-14T03:59:05.824Z,19.2
2017-03-14T04:00:15.712Z,19.3
2017-03-14T04:01:25.599Z,19.3
2017-03-14T04:02:35.896Z,19.2
2017-03-14T04:03:45.657Z,19.3
2017-03-14T04:04:56.354Z,19.2
2017-03-14T04:06:06.248Z,19.2
2017-03-14T04:07:16.150Z,19.11
2017-03-14T04:08:26.851Z,19.2
2017-03-14T04:09:36.994Z,19.2
2017-03-14T04:10:47.672Z,19.2
2017-03-14T04:11:57.572Z,19.3
2017-03-14T04:13:07.096Z,19.3
2017-03-14T04:14:16.990Z,19.11
2017-03-14T04:15:27.532Z,19.2
2017-03-14T04:16:37.815Z,19.2
2017-03-14T04:17:47.747Z,19.11
2017-03-14T04:18:58.100Z,19.11
2017-03-14T04:20:08.388Z,19.11
2017-03-14T04:21:18.535Z,19.11
2017-03-14T04:22:28.832Z,19.3
2017-03-14T04:23:39.517Z,19.2
2017-03-14T04:24:49.819Z,19.3
2017-03-14T04:26:00.508Z,19.3
2017-03-14T04:27:11.046Z,19.2
2017-03-14T04:28:21.344Z,19.2
2017-03-14T04:29:31.640Z,19.3
2017-03-14T04:30:41.929Z,19.3
2017-03-14T04:31:51.827Z,19.2
2017-03-14T04:33:02.374Z,19.11
2017-03-14T04:34:13.058Z,18.91
2017-03-14T04:35:23.779Z,19.11
2017-03-14T04:36:33.279Z,19.4
2017-03-14T04:37:43.166Z,19.2
2017-03-14T04:38:53.700Z,19.2
2017-03-14T04:40:04.403Z,19.59
2017-03-14T04:41:14.307Z,19.4
2017-03-14T04:42:24.586Z,19.2
2017-03-14T04:43:34.498Z,19.2
2017-03-14T04:44:45.048Z,19.2
2017-03-14T04:45:54.950Z,19.49
2017-03-14T04:47:04.857Z,19.2
2017-03-14T04:48:15.147Z,19.29
2017-03-14T04:49:25.431Z,19.59
2017-03-14T04:50:36.377Z,19.2
2017-03-14T04:51:46.269Z,19.2
2017-03-14T04:52:56.952Z,19.2
2017-03-14T04:54:07.247Z,19.11
2017-03-14T04:55:17.926Z,19.2
2017-03-14T04:56:28.466Z,19.3
2017-03-14T04:57:39.149Z,19.49
2017-03-14T04:58:49.841Z,19.38
2017-03-14T05:00:00.133Z,19.3
2017-03-14T05:01:09.271Z,19.4
2017-03-14T05:02:19.047Z,19.4
2017-03-14T05:03:29.340Z,19.3
2017-03-14T05:04:39.643Z,19.2
2017-03-14T05:05:49.548Z,19.4
2017-03-14T05:06:59.447Z,19.2
2017-03-14T05:08:09.617Z,19.49
2017-03-14T05:09:19.903Z,19.01
2017-03-14T05:10:30.590Z,19.11
2017-03-14T05:11:40.527Z,19.3
2017-03-14T05:12:50.852Z,19.11
2017-03-14T05:14:01.803Z,19.3
2017-03-14T05:15:12.810Z,19.2
2017-03-14T05:16:22.716Z,19.3
2017-03-14T05:17:33.416Z,19.2
2017-03-14T05:18:43.314Z,19.3
2017-03-14T05:19:53.859Z,19.3
2017-03-14T05:21:03.759Z,19.2
2017-03-14T05:22:14.041Z,19.11
2017-03-14T05:23:24.734Z,19.11
2017-03-14T05:24:34.633Z,19.11
2017-03-14T05:25:44.393Z,19.2
2017-03-14T05:26:55.079Z,19.2
2017-03-14T05:28:05.774Z,19.2
2017-03-14T05:29:16.072Z,19.11
2017-03-14T05:30:26.761Z,19.2
2017-03-14T05:31:36.950Z,19.11
2017-03-14T05:32:47.241Z,19.11
2017-03-14T05:33:57.159Z,19.2
2017-03-14T05:35:07.441Z,19.2
2017-03-14T05:36:17.726Z,19.11
2017-03-14T05:37:28.254Z,19.2
2017-03-14T05:38:38.143Z,19.01
2017-03-14T05:39:47.659Z,19.3
2017-03-14T05:40:57.935Z,19.11
2017-03-14T05:42:08.610Z,19.11
2017-03-14T05:43:19.155Z,19.4
2017-03-14T05:44:29.448Z,19.3
2017-03-14T05:45:39.748Z,19.2
2017-03-14T05:46:51.338Z,19.2
2017-03-14T05:48:01.627Z,19.2
2017-03-14T05:49:12.561Z,19.3
2017-03-14T05:50:23.250Z,19.11
2017-03-14T05:51:33.537Z,19.2
2017-03-14T05:52:44.220Z,19.11
2017-03-14T05:53:54.118Z,19.2
2017-03-14T05:55:04.263Z,19.3
2017-03-14T05:56:14.153Z,19.2
2017-03-14T05:57:24.444Z,19.2
2017-03-14T05:58:34.370Z,19.3
2017-03-14T05:59:45.056Z,19.3
2017-03-14T06:00:55.606Z,19.11
2017-03-14T06:02:06.297Z,19.2
2017-03-14T06:03:15.801Z,19.3
2017-03-14T06:04:25.704Z,19.2
2017-03-14T06:05:35.236Z,19.4
2017-03-14T06:06:46.191Z,19.59
2017-03-14T06:07:56.485Z,19.2
2017-03-14T06:09:06.789Z,19.2
2017-03-14T06:10:17.497Z,19.11
2017-03-14T06:11:27.409Z,19.68
2017-03-14T06:12:37.589Z,19.49
2017-03-14T06:13:47.489Z,19.3
2017-03-14T06:14:57.832Z,19.4
2017-03-14T06:16:08.140Z,19.4
2017-03-14T06:17:18.438Z,19.49
2017-03-14T06:18:29.363Z,19.49
2017-03-14T06:19:39.814Z,19.49
2017-03-14T06:20:50.512Z,19.49
2017-03-14T06:22:01.210Z,19.49
2017-03-14T06:23:11.906Z,19.4
2017-03-14T06:24:22.829Z,19.3
2017-03-14T06:25:33.531Z,19.3
2017-03-14T06:26:44.230Z,19.4
2017-03-14T06:27:54.571Z,19.4
2017-03-14T06:29:05.305Z,19.68
2017-03-14T06:30:16.252Z,19.68
2017-03-14T06:31:26.943Z,19.59
2017-03-14T06:32:37.630Z,19.49
2017-03-14T06:33:47.143Z,19.49
2017-03-14T06:34:57.494Z,19.49
2017-03-14T06:36:07.651Z,19.49
2017-03-14T06:37:18.359Z,19.49
2017-03-14T06:38:29.063Z,19.49
2017-03-14T06:39:39.780Z,19.4
2017-03-14T06:40:50.074Z,19.4
2017-03-14T06:42:01.039Z,19.59
2017-03-14T06:43:11.347Z,19.5
2017-03-14T06:44:21.641Z,19.4
2017-03-14T06:45:31.933Z,19.5
2017-03-14T06:46:42.623Z,19.5
2017-03-14T06:47:53.158Z,19.4
2017-03-14T06:49:03.069Z,19.49
2017-03-14T06:50:12.978Z,19.59
2017-03-14T06:51:23.664Z,19.49
2017-03-14T06:52:33.578Z,19.6
2017-03-14T06:53:44.132Z,19.49
2017-03-14T06:54:53.647Z,19.49
2017-03-14T06:56:03.539Z,19.59
2017-03-14T06:57:13.451Z,19.79
2017-03-14T06:58:24.202Z,19.7
2017-03-14T06:59:34.742Z,19.79
2017-03-14T07:00:45.460Z,19.79
2017-03-14T07:01:55.843Z,19.7
2017-03-14T07:03:06.644Z,19.7
2017-03-14T07:04:16.998Z,19.89
2017-03-14T07:05:27.965Z,19.7
2017-03-14T07:06:38.271Z,19.7
2017-03-14T07:07:48.579Z,19.6
2017-03-14T07:08:58.872Z,19.89
2017-03-14T07:10:09.852Z,19.79
2017-03-14T07:11:20.414Z,19.98
2017-03-14T07:12:30.748Z,20.37
2017-03-14T07:13:41.468Z,20.47
2017-03-14T07:14:52.160Z,20.56
2017-03-14T07:16:02.488Z,20.94
2017-03-14T07:17:12.289Z,20.94
2017-03-14T07:18:22.988Z,21.14
2017-03-14T07:19:33.284Z,21.42
2017-03-14T07:20:43.573Z,21.71
2017-03-14T07:21:53.858Z,21.91
2017-03-14T07:23:04.418Z,22.67
2017-03-14T07:24:14.712Z,23.25
2017-03-14T07:25:25.018Z,23.83
2017-03-14T07:26:35.323Z,24.02
2017-03-14T07:27:46.025Z,23.92
2017-03-14T07:28:56.592Z,23.83
2017-03-14T07:30:07.313Z,23.73
2017-03-14T07:31:18.018Z,22.96
2017-03-14T07:32:28.739Z,22.77
2017-03-14T07:33:38.247Z,22.59
2017-03-14T07:34:49.209Z,22.88
2017-03-14T07:35:59.900Z,22.78
2017-03-14T07:37:10.641Z,22.78
2017-03-14T07:38:20.956Z,22.88
2017-03-14T07:39:30.463Z,22.69
2017-03-14T07:40:41.669Z,21.92
2017-03-14T07:41:51.174Z,22.01
2017-03-14T07:43:01.490Z,22.49
2017-03-14T07:44:11.788Z,22.49
2017-03-14T07:45:21.685Z,22.11
2017-03-14T07:46:32.645Z,21.82
2017-03-14T07:47:43.327Z,21.62
2017-03-14T07:48:54.050Z,21.44
2017-03-14T07:50:04.748Z,21.53
2017-03-14T07:51:15.039Z,21.34
2017-03-14T07:52:25.612Z,21.15
2017-03-14T07:53:35.604Z,21.24
2017-03-14T07:54:46.159Z,21.15
2017-03-14T07:55:56.478Z,21.15
2017-03-14T07:57:06.774Z,21.15
2017-03-14T07:58:17.343Z,21.05
2017-03-14T07:59:27.693Z,20.86
2017-03-14T08:00:37.241Z,20.86
2017-03-14T08:01:47.564Z,20.76
2017-03-14T08:02:57.487Z,20.86
2017-03-14T08:04:08.056Z,20.86
2017-03-14T08:05:18.386Z,21.15
2017-03-14T08:06:28.764Z,20.86
2017-03-14T08:07:39.066Z,20.67
2017-03-14T08:08:49.789Z,20.57
2017-03-14T08:10:00.776Z,21.15
2017-03-14T08:11:11.103Z,20.95
2017-03-14T08:12:21.034Z,20.67
2017-03-14T08:13:31.381Z,20.86
2017-03-14T08:14:41.680Z,20.95
2017-03-14T08:15:52.679Z,20.86
2017-03-14T08:17:03.375Z,20.86
2017-03-14T08:18:14.077Z,20.95
2017-03-14T08:19:24.760Z,20.86
2017-03-14T08:20:35.471Z,21.15
2017-03-14T08:21:46.427Z,21.15
2017-03-14T08:22:56.336Z,21.15
2017-03-14T08:24:06.673Z,20.76
2017-03-14T08:25:16.571Z,21.24
2017-03-14T08:26:26.882Z,21.64
2017-03-14T08:27:37.042Z,21.62
2017-03-14T08:28:47.358Z,21.62
2017-03-14T08:29:57.666Z,21.62
2017-03-14T08:31:07.569Z,21.53
2017-03-14T08:32:18.264Z,21.53
2017-03-14T08:33:29.206Z,21.44
2017-03-14T08:34:39.116Z,21.92
2017-03-14T08:35:49.820Z,22.11
2017-03-14T08:37:00.520Z,22.3
2017-03-14T08:38:11.235Z,22.01
2017-03-14T08:39:22.177Z,21.92
2017-03-14T08:40:32.940Z,22.2
2017-03-14T08:41:43.634Z,22.12
2017-03-14T08:42:53.950Z,21.54
2017-03-14T08:44:04.268Z,21.82
2017-03-14T08:45:14.828Z,21.83
2017-03-14T08:46:25.521Z,21.72
2017-03-14T08:47:35.846Z,21.73
2017-03-14T08:48:46.140Z,21.73
2017-03-14T08:49:56.479Z,21.44
2017-03-14T08:51:07.019Z,21.62
2017-03-14T08:52:16.941Z,21.73
2017-03-14T08:53:26.878Z,21.64
2017-03-14T08:54:37.614Z,21.44
2017-03-14T08:55:47.962Z,21.54
2017-03-14T08:56:58.915Z,21.44
2017-03-14T08:58:09.636Z,21.25
2017-03-14T08:59:19.938Z,21.15
2017-03-14T09:00:30.279Z,21.06
2017-03-14T09:01:40.622Z,21.06
2017-03-14T09:02:51.593Z,20.97
2017-03-14T09:04:01.930Z,20.77
2017-03-14T09:05:12.673Z,21.15
2017-03-14T09:06:23.387Z,20.58
2017-03-14T09:07:34.119Z,20.67
2017-03-14T09:08:44.287Z,20.87
2017-03-14T09:09:55.022Z,20.87
2017-03-14T09:11:05.366Z,20.77
2017-03-14T09:12:15.737Z,20.59
2017-03-14T09:13:25.641Z,20.48
2017-03-14T09:14:36.614Z,20.67
2017-03-14T09:15:46.945Z,20.77
2017-03-14T09:16:57.690Z,20.67
2017-03-14T09:18:08.006Z,20.2
2017-03-14T09:19:18.732Z,20.4
2017-03-14T09:20:29.316Z,20.5
2017-03-14T09:21:39.894Z,20.4
2017-03-14T09:22:50.642Z,20.5
2017-03-14T09:24:01.398Z,20.2
2017-03-14T09:25:11.972Z,20.4
2017-03-14T09:26:22.607Z,20.2
2017-03-14T09:27:33.334Z,20.3
2017-03-14T09:28:44.177Z,20.4
2017-03-14T09:29:54.080Z,20.59
2017-03-14T09:31:04.779Z,20.4
2017-03-14T09:32:15.764Z,20.97
2017-03-14T09:33:26.457Z,20.97
2017-03-14T09:34:36.386Z,20.97
2017-03-14T09:35:47.089Z,20.78
2017-03-14T09:36:57.793Z,20.5
2017-03-14T09:38:08.393Z,20.59
2017-03-14T09:39:18.720Z,20.68
2017-03-14T09:40:29.438Z,20.5
2017-03-14T09:41:40.384Z,20.3
2017-03-14T09:42:50.319Z,20.4
2017-03-14T09:44:01.276Z,20.3
2017-03-14T09:45:11.999Z,20.5
2017-03-14T09:46:22.697Z,20.68
2017-03-14T09:47:33.029Z,20.68
2017-03-14T09:48:43.341Z,20.68
2017-03-14T09:49:53.529Z,20.59
2017-03-14T09:51:03.894Z,20.59
2017-03-14T09:52:14.629Z,20.59
2017-03-14T09:53:25.355Z,20.68
2017-03-14T09:54:35.657Z,20.78
2017-03-14T09:55:46.642Z,20.59
2017-03-14T09:56:57.425Z,20.59
2017-03-14T09:58:08.361Z,20.5
2017-03-14T09:59:18.684Z,20.11
2017-03-14T10:00:29.070Z,20.5
2017-03-14T10:01:40.059Z,20.3
2017-03-14T10:02:50.778Z,20.4
2017-03-14T10:04:01.322Z,20.59
2017-03-14T10:05:11.661Z,20.3
2017-03-14T10:06:22.387Z,20.3
2017-03-14T10:07:33.342Z,20.11
2017-03-14T10:08:44.045Z,20.2
2017-03-14T10:09:54.765Z,20.3
2017-03-14T10:11:05.093Z,20.3
2017-03-14T10:12:15.403Z,20.01
2017-03-14T10:13:26.387Z,20.3
2017-03-14T10:14:36.691Z,20.2
2017-03-14T10:15:46.610Z,20.11
2017-03-14T10:16:57.310Z,20.11
2017-03-14T10:18:07.612Z,19.72
2017-03-14T10:19:17.543Z,20.11
2017-03-14T10:20:27.871Z,19.63
2017-03-14T10:21:37.791Z,20.11
2017-03-14T10:22:48.408Z,19.82
2017-03-14T10:23:57.747Z,19.82
2017-03-14T10:25:08.023Z,19.72
2017-03-14T10:26:18.365Z,19.82
2017-03-14T10:27:28.649Z,19.82
2017-03-14T10:28:38.628Z,19.92
2017-03-14T10:29:48.856Z,19.92
2017-03-14T10:30:58.855Z,19.93
2017-03-14T10:32:08.233Z,19.53
2017-03-14T10:33:18.519Z,19.82
2017-03-14T10:34:28.488Z,19.72
2017-03-14T10:35:38.700Z,19.72
2017-03-14T10:36:48.684Z,19.72
2017-03-14T10:37:58.972Z,19.64
2017-03-14T10:39:08.636Z,19.53
2017-03-14T10:40:18.595Z,19.63
2017-03-14T10:41:29.128Z,19.64
2017-03-14T10:42:38.776Z,19.82
2017-03-14T10:43:49.043Z,19.92
2017-03-14T10:44:59.335Z,19.72
2017-03-14T10:46:09.301Z,19.72
2017-03-14T10:47:19.205Z,19.73
2017-03-14T10:48:29.488Z,19.63
2017-03-14T10:49:39.767Z,19.82
2017-03-14T10:50:50.135Z,19.64
2017-03-14T10:52:00.417Z,19.63
2017-03-14T10:53:10.962Z,19.45
2017-03-14T10:54:20.930Z,19.53
2017-03-14T10:55:31.741Z,19.53
2017-03-14T10:56:41.708Z,19.63
2017-03-14T10:57:51.984Z,19.53
2017-03-14T10:59:02.198Z,19.63
2017-03-14T11:00:12.179Z,19.92
2017-03-14T11:01:22.149Z,19.82
2017-03-14T11:02:32.425Z,20.11
2017-03-14T11:03:42.452Z,20.2
2017-03-14T11:04:52.361Z,20.3
2017-03-14T11:06:02.732Z,20.2
2017-03-14T11:07:12.707Z,20.4
2017-03-14T11:08:22.667Z,20.59
2017-03-14T11:09:32.305Z,20.4
2017-03-14T11:10:42.558Z,20.5
2017-03-14T11:11:52.835Z,20.4
2017-03-14T11:13:02.807Z,20.3
2017-03-14T11:14:12.770Z,20.4
2017-03-14T11:15:22.745Z,20.3
2017-03-14T11:16:32.997Z,20.3
2017-03-14T11:17:42.641Z,20.2
2017-03-14T11:18:52.924Z,20.5
2017-03-14T11:20:02.268Z,20.59
2017-03-14T11:21:12.230Z,20.78
2017-03-14T11:22:22.751Z,20.88
2017-03-14T11:23:32.721Z,20.5
2017-03-14T11:24:42.999Z,20.59
2017-03-14T11:25:52.954Z,20.88
2017-03-14T11:27:03.227Z,20.97
2017-03-14T11:28:13.436Z,20.78
2017-03-14T11:29:23.408Z,20.68
2017-03-14T11:30:33.682Z,21.26
2017-03-14T11:31:43.657Z,21.07
2017-03-14T11:32:53.305Z,21.07
2017-03-14T11:34:03.208Z,21.17
2017-03-14T11:35:13.182Z,21.17
2017-03-14T11:36:22.838Z,20.97
2017-03-14T11:37:32.512Z,21.07
2017-03-14T11:38:42.838Z,20.97
2017-03-14T11:39:53.058Z,20.78
2017-03-14T11:41:03.361Z,21.07
2017-03-14T11:42:13.901Z,20.88
2017-03-14T11:43:23.872Z,20.88
2017-03-14T11:44:34.139Z,20.97
2017-03-14T11:45:44.350Z,20.97
2017-03-14T11:46:54.307Z,20.78
2017-03-14T11:48:04.605Z,20.59
2017-03-14T11:49:14.557Z,20.5
2017-03-14T11:50:24.874Z,20.5
2017-03-14T11:51:35.157Z,20.5
2017-03-14T11:52:45.445Z,20.78
2017-03-14T11:53:55.722Z,20.5
2017-03-14T11:55:06.003Z,20.59
2017-03-14T11:56:16.543Z,20.78
2017-03-14T11:57:26.830Z,20.88
2017-03-14T11:58:37.113Z,21.07
2017-03-14T11:59:47.085Z,20.97
2017-03-14T12:00:57.045Z,20.78
2017-03-14T12:02:07.251Z,20.5
2017-03-14T12:03:17.225Z,20.6
2017-03-14T12:04:27.506Z,20.6
2017-03-14T12:05:37.778Z,20.7
2017-03-14T12:06:47.733Z,20.68
2017-03-14T12:07:57.980Z,20.6
2017-03-14T12:09:07.945Z,20.7
2017-03-14T12:10:17.600Z,20.6
2017-03-14T12:11:27.580Z,20.5
2017-03-14T12:12:37.859Z,20.7
2017-03-14T12:13:48.378Z,20.7
2017-03-14T12:14:58.025Z,20.7
2017-03-14T12:16:08.319Z,20.6
2017-03-14T12:17:18.269Z,20.5
2017-03-14T12:18:28.540Z,20.6
2017-03-14T12:19:39.079Z,20.79
2017-03-14T12:20:49.032Z,20.98
2017-03-14T12:21:59.340Z,20.89
2017-03-14T12:23:09.619Z,21.08
2017-03-14T12:24:19.904Z,21.08
2017-03-14T12:25:29.817Z,20.7
2017-03-14T12:26:40.112Z,21.18
2017-03-14T12:27:50.388Z,20.7
2017-03-14T12:29:00.680Z,20.6
2017-03-14T12:30:10.675Z,20.89
2017-03-14T12:31:21.199Z,20.89
2017-03-14T12:32:31.413Z,20.89
2017-03-14T12:33:41.415Z,20.89
2017-03-14T12:34:51.680Z,20.89
2017-03-14T12:36:01.949Z,20.79
2017-03-14T12:37:11.903Z,20.89
2017-03-14T12:38:22.181Z,20.79
2017-03-14T12:39:32.454Z,21.37
2017-03-14T12:40:42.715Z,21.08
2017-03-14T12:41:52.689Z,21.27
2017-03-14T12:43:03.293Z,21.27
2017-03-14T12:44:13.299Z,21.18
2017-03-14T12:45:23.588Z,21.18
2017-03-14T12:46:33.551Z,21.37
2017-03-14T12:47:43.849Z,21.37
2017-03-14T12:48:54.590Z,21.47
2017-03-14T12:50:04.560Z,21.37
2017-03-14T12:51:14.528Z,21.56
2017-03-14T12:52:23.902Z,21.75
2017-03-14T12:53:33.866Z,21.56
2017-03-14T12:54:43.858Z,21.66
2017-03-14T12:55:54.156Z,21.66
2017-03-14T12:57:03.871Z,21.75
2017-03-14T12:58:14.186Z,21.56
2017-03-14T12:59:24.182Z,21.75
2017-03-14T13:00:35.037Z,21.95
2017-03-14T13:01:45.003Z,21.66
2017-03-14T13:02:55.028Z,21.85
2017-03-14T13:04:04.742Z,21.56
2017-03-14T13:05:14.675Z,21.75
2017-03-14T13:06:24.983Z,21.66
2017-03-14T13:07:35.262Z,21.56
2017-03-14T13:08:45.564Z,21.75
2017-03-14T13:09:55.842Z,21.75
2017-03-14T13:11:06.033Z,21.75
2017-03-14T13:12:15.970Z,21.95
2017-03-14T13:13:25.617Z,21.66
2017-03-14T13:14:36.213Z,21.75
2017-03-14T13:15:46.532Z,21.66
2017-03-14T13:16:56.822Z,21.75
2017-03-14T13:18:07.366Z,21.85
2017-03-14T13:19:17.372Z,21.75
2017-03-14T13:20:27.743Z,21.56
2017-03-14T13:21:37.705Z,21.56
2017-03-14T13:22:47.656Z,21.66
2017-03-14T13:23:57.942Z,21.66
2017-03-14T13:25:08.275Z,21.85
2017-03-14T13:26:18.543Z,21.75
2017-03-14T13:27:28.243Z,21.66
2017-03-14T13:28:38.201Z,21.85
2017-03-14T13:29:48.778Z,22.05
2017-03-14T13:30:59.052Z,21.95
2017-03-14T13:32:09.324Z,21.75
2017-03-14T13:33:19.033Z,22.14
2017-03-14T13:34:28.993Z,21.95
2017-03-14T13:35:39.520Z,21.95
2017-03-14T13:36:49.807Z,21.75
2017-03-14T13:37:59.805Z,22.14
2017-03-14T13:39:09.783Z,21.95
2017-03-14T13:40:20.068Z,21.95
2017-03-14T13:41:30.674Z,22.05
2017-03-14T13:42:40.331Z,22.05
2017-03-14T13:43:49.665Z,21.95
2017-03-14T13:44:59.654Z,22.05
2017-03-14T13:46:09.332Z,21.95
2017-03-14T13:47:19.871Z,22.43
2017-03-14T13:48:30.244Z,22.14
2017-03-14T13:49:40.657Z,21.95
2017-03-14T13:50:50.964Z,22.05
2017-03-14T13:52:01.247Z,22.05
2017-03-14T13:53:11.813Z,22.24
2017-03-14T13:54:21.488Z,22.24
2017-03-14T13:55:31.476Z,22.14
2017-03-14T13:56:41.424Z,22.05
2017-03-14T13:57:51.711Z,22.03
2017-03-14T13:59:02.272Z,22.14
2017-03-14T14:00:12.236Z,22.62
2017-03-14T14:01:22.510Z,22.52
2017-03-14T14:02:31.851Z,22.62
2017-03-14T14:03:41.831Z,22.52
2017-03-14T14:04:51.774Z,22.52
2017-03-14T14:06:02.054Z,22.62
2017-03-14T14:07:12.341Z,22.62
2017-03-14T14:08:22.301Z,22.52
2017-03-14T14:09:32.726Z,22.43
2017-03-14T14:10:43.406Z,22.62
2017-03-14T14:11:53.091Z,22.62
2017-03-14T14:13:02.746Z,22.62
2017-03-14T14:14:13.023Z,22.81
2017-03-14T14:15:22.989Z,22.52
2017-03-14T14:16:32.897Z,22.52
2017-03-14T14:17:43.178Z,22.62
2017-03-14T14:18:52.522Z,22.43
2017-03-14T14:20:02.486Z,22.52
2017-03-14T14:21:12.770Z,22.62
2017-03-14T14:22:23.300Z,22.72
2017-03-14T14:23:33.261Z,22.91
2017-03-14T14:24:43.459Z,22.62
2017-03-14T14:25:53.736Z,22.72
2017-03-14T14:27:04.134Z,22.52
2017-03-14T14:28:14.654Z,23
2017-03-14T14:29:24.629Z,22.91
2017-03-14T14:30:34.603Z,22.81
2017-03-14T14:31:44.575Z,22.91
2017-03-14T14:32:54.539Z,23
2017-03-14T14:34:04.769Z,22.91
2017-03-14T14:35:14.440Z,23
2017-03-14T14:36:24.728Z,23.2
2017-03-14T14:37:34.685Z,22.91
2017-03-14T14:38:44.638Z,22.91
2017-03-14T14:39:54.867Z,23
2017-03-14T14:41:05.154Z,23
2017-03-14T14:42:15.110Z,23
2017-03-14T14:43:25.375Z,23
2017-03-14T14:44:35.659Z,23.1
2017-03-14T14:45:45.940Z,23.1
2017-03-14T14:46:56.229Z,23.1
2017-03-14T14:48:06.203Z,22.91
2017-03-14T14:49:16.490Z,23.1
2017-03-14T14:50:26.802Z,23.1
2017-03-14T14:51:37.031Z,23
2017-03-14T14:52:47.325Z,23
2017-03-14T14:53:56.972Z,23.1
2017-03-14T14:55:06.950Z,23
2017-03-14T14:56:17.230Z,23.1
2017-03-14T14:57:27.210Z,23.1
2017-03-14T14:58:37.182Z,23.1
2017-03-14T14:59:47.476Z,23
2017-03-14T15:00:57.834Z,23.1
2017-03-14T15:02:07.812Z,23.1
2017-03-14T15:03:18.033Z,23
2017-03-14T15:04:27.697Z,23.58
2017-03-14T15:05:37.993Z,23.39
2017-03-14T15:06:47.667Z,23.3
2017-03-14T15:07:57.956Z,23.3
2017-03-14T15:09:08.493Z,23.3
2017-03-14T15:10:18.468Z,23.3
2017-03-14T15:11:28.747Z,23.2
2017-03-14T15:12:39.059Z,23.2
2017-03-14T15:13:49.342Z,23.3